Terminal Aerodrome Forecast
Issued by NWS

Home | Current Version | Previous Version | Text Only | Print | Product List | Glossary On
Versions: 1 2 3 4 5 6 7 8 9 10 11 12 13
000
FTUS42 KILM 140946 AAA
TAFCRE
TAF AMD
KCRE 140946Z 1410/1506 23013KT P6SM SKC WS010/26040KT
     FM141500 24011KT P6SM SCT200
     FM150000 26003KT P6SM SKC=

USA.gov is the U.S. government's official web portal to all federal, state and local government web resources and services.